Cotes De La Manche — FQBE — position and weather

sailwx.info

Track history (hours):
 
Tides and Currents Weather Stations Pressure Air Temp Water Temp Dewpoint Dewpoint Depression Visibility Wind Speed Wind Dir Waves Ship Positions

Cotes De La Manche

Last reported at 2015-Jun-29 22:33 UTC. Time now 2015-Jun-29 23:12 UTC.
Position N 48°23' W 004°29'.

Length 25 m; draft 3.7 m.

Type: Other ship. MMSI: 227091000.

Date/timePositionNaut miles runAvg speedWind from/ knotsBaromVisibWave heightAir tempDewpointWater temp
2015-Jun-29 22:33N 48°23' W 004°29'0 0.0
2015-Jun-29 21:33N 48°23' W 004°29'0 0.0
2015-Jun-29 20:33N 48°23' W 004°29'0 0.0
2015-Jun-29 19:33N 48°23' W 004°29'0 0.0
2015-Jun-29 18:33N 48°23' W 004°29'0 0.0
2015-Jun-29 17:33N 48°23' W 004°29'0 0.0
2015-Jun-29 16:33N 48°23' W 004°29'0 0.0
2015-Jun-29 15:33N 48°23' W 004°29'0 0.0
2015-Jun-29 14:33N 48°23' W 004°29'0 0.0
2015-Jun-29 13:33N 48°23' W 004°29'0 0.0
2015-Jun-29 12:33N 48°23' W 004°29'0 0.0
2015-Jun-29 11:33N 48°23' W 004°29'0 0.0
2015-Jun-29 10:33N 48°23' W 004°29'0 0.0
2015-Jun-29 09:32N 48°23' W 004°29'0 0.0
2015-Jun-29 08:33N 48°23' W 004°29'0 0.0
2015-Jun-29 07:32N 48°23' W 004°29'0 0.0
2015-Jun-29 06:30N 48°23' W 004°29'2 2.1
2015-Jun-29 05:33N 48°22' W 004°31'8 7.9
2015-Jun-29 04:33N 48°19' W 004°42'  
2015-Jun-21 05:18N 48°19' W 004°47'7 9.7
2015-Jun-21 04:33N 48°20' W 004°36'6 5.5
2015-Jun-21 03:34N 48°23' W 004°29'0 0.0
2015-Jun-21 02:34N 48°23' W 004°29'0 0.0
2015-Jun-21 01:33N 48°23' W 004°29'0 0.0
2015-Jun-21 00:34N 48°23' W 004°29'0 0.0
2015-Jun-20 23:33N 48°23' W 004°29'0 0.0
2015-Jun-20 22:34N 48°23' W 004°29'0 0.0
2015-Jun-20 21:34N 48°23' W 004°29'0 0.0
2015-Jun-20 20:33N 48°23' W 004°29'0 0.0
2015-Jun-20 19:34N 48°23' W 004°29'0 0.0
2015-Jun-20 18:33N 48°23' W 004°29'0 0.0
2015-Jun-20 17:33N 48°23' W 004°29'0 0.0
2015-Jun-20 16:34N 48°23' W 004°29'0 0.0
2015-Jun-20 15:34N 48°23' W 004°29'0 0.0
2015-Jun-20 14:34N 48°23' W 004°29'0 0.0
2015-Jun-20 13:33N 48°23' W 004°29'0 0.0
2015-Jun-20 12:34N 48°23' W 004°29'0 0.0
2015-Jun-20 11:34N 48°23' W 004°29'0 0.0
2015-Jun-20 10:34N 48°23' W 004°29'0 0.0
2015-Jun-20 09:34N 48°23' W 004°29'0 0.2
2015-Jun-20 08:33N 48°23' W 004°29'0 0.2
2015-Jun-20 07:34N 48°23' W 004°29'7 7.1
2015-Jun-20 06:34N 48°17' W 004°35'0 0.2
2015-Jun-20 05:34N 48°17' W 004°36'0 0.0
2015-Jun-20 04:34N 48°17' W 004°36'0 0.0
2015-Jun-20 03:34N 48°17' W 004°36'0 0.0
2015-Jun-20 02:33N 48°17' W 004°36'0 0.0
2015-Jun-20 01:34N 48°17' W 004°36'0 0.0
2015-Jun-20 00:34N 48°17' W 004°36'0 0.0
2015-Jun-19 23:33N 48°17' W 004°36'0 0.0
2015-Jun-19 22:34N 48°17' W 004°36'  
Track history (hours):
 
Tides and Currents Weather Stations Pressure Air Temp Water Temp Dewpoint Dewpoint Depression Visibility Wind Speed Wind Dir Waves Ship Positions

Cotes De La Manche

Last reported at 2015-Jun-29 22:33 UTC. Time now 2015-Jun-29 23:12 UTC.
Position N 48°23' W 004°29'.

Length 25 m; draft 3.7 m.

Type: Other ship. MMSI: 227091000.

Date/timePositionNaut miles runAvg speedWind from/ knotsBaromVisibWave heightAir tempDewpointWater temp
2015-Jun-29 22:33N 48°23' W 004°29'0 0.0
2015-Jun-29 21:33N 48°23' W 004°29'0 0.0
2015-Jun-29 20:33N 48°23' W 004°29'0 0.0
2015-Jun-29 19:33N 48°23' W 004°29'0 0.0
2015-Jun-29 18:33N 48°23' W 004°29'0 0.0
2015-Jun-29 17:33N 48°23' W 004°29'0 0.0
2015-Jun-29 16:33N 48°23' W 004°29'0 0.0
2015-Jun-29 15:33N 48°23' W 004°29'0 0.0
2015-Jun-29 14:33N 48°23' W 004°29'0 0.0
2015-Jun-29 13:33N 48°23' W 004°29'0 0.0
2015-Jun-29 12:33N 48°23' W 004°29'0 0.0
2015-Jun-29 11:33N 48°23' W 004°29'0 0.0
2015-Jun-29 10:33N 48°23' W 004°29'0 0.0
2015-Jun-29 09:32N 48°23' W 004°29'0 0.0
2015-Jun-29 08:33N 48°23' W 004°29'0 0.0
2015-Jun-29 07:32N 48°23' W 004°29'0 0.0
2015-Jun-29 06:30N 48°23' W 004°29'2 2.1
2015-Jun-29 05:33N 48°22' W 004°31'8 7.9
2015-Jun-29 04:33N 48°19' W 004°42'  
2015-Jun-21 05:18N 48°19' W 004°47'7 9.7
2015-Jun-21 04:33N 48°20' W 004°36'6 5.5
2015-Jun-21 03:34N 48°23' W 004°29'0 0.0
2015-Jun-21 02:34N 48°23' W 004°29'0 0.0
2015-Jun-21 01:33N 48°23' W 004°29'0 0.0
2015-Jun-21 00:34N 48°23' W 004°29'0 0.0
2015-Jun-20 23:33N 48°23' W 004°29'0 0.0
2015-Jun-20 22:34N 48°23' W 004°29'0 0.0
2015-Jun-20 21:34N 48°23' W 004°29'0 0.0
2015-Jun-20 20:33N 48°23' W 004°29'0 0.0
2015-Jun-20 19:34N 48°23' W 004°29'0 0.0
2015-Jun-20 18:33N 48°23' W 004°29'0 0.0
2015-Jun-20 17:33N 48°23' W 004°29'0 0.0
2015-Jun-20 16:34N 48°23' W 004°29'0 0.0
2015-Jun-20 15:34N 48°23' W 004°29'0 0.0
2015-Jun-20 14:34N 48°23' W 004°29'0 0.0
2015-Jun-20 13:33N 48°23' W 004°29'0 0.0
2015-Jun-20 12:34N 48°23' W 004°29'0 0.0
2015-Jun-20 11:34N 48°23' W 004°29'0 0.0
2015-Jun-20 10:34N 48°23' W 004°29'0 0.0
2015-Jun-20 09:34N 48°23' W 004°29'0 0.2
2015-Jun-20 08:33N 48°23' W 004°29'0 0.2
2015-Jun-20 07:34N 48°23' W 004°29'7 7.1
2015-Jun-20 06:34N 48°17' W 004°35'0 0.2
2015-Jun-20 05:34N 48°17' W 004°36'0 0.0
2015-Jun-20 04:34N 48°17' W 004°36'0 0.0
2015-Jun-20 03:34N 48°17' W 004°36'0 0.0
2015-Jun-20 02:33N 48°17' W 004°36'0 0.0
2015-Jun-20 01:34N 48°17' W 004°36'0 0.0
2015-Jun-20 00:34N 48°17' W 004°36'0 0.0
2015-Jun-19 23:33N 48°17' W 004°36'0 0.0
2015-Jun-19 22:34N 48°17' W 004°36'  

Dump ship's entire track history